sensor_id;sensor_type;location;lat;lon;timestamp;pressure;altitude;pressure_sealevel;temperature;humidity
18697;BME280;22617;43.690;27.956;2023-05-01T00:01:56;98772.50;;;11.73;65.62
18697;BME280;22617;43.690;27.956;2023-05-01T00:06:59;98770.03;;;11.56;65.40
18697;BME280;22617;43.690;27.956;2023-05-01T00:12:04;98778.53;;;11.76;65.24
18697;BME280;22617;43.690;27.956;2023-05-01T00:17:10;98779.44;;;11.71;65.86
18697;BME280;22617;43.690;27.956;2023-05-01T00:22:14;98782.06;;;11.74;66.60
18697;BME280;22617;43.690;27.956;2023-05-01T00:27:18;98783.66;;;11.86;66.29
18697;BME280;22617;43.690;27.956;2023-05-01T00:32:24;98787.03;;;11.94;65.77
18697;BME280;22617;43.690;27.956;2023-05-01T00:37:28;98789.63;;;11.95;65.39
18697;BME280;22617;43.690;27.956;2023-05-01T00:42:35;98803.47;;;12.02;64.77
18697;BME280;22617;43.690;27.956;2023-05-01T00:47:42;98806.84;;;12.10;65.46
18697;BME280;22617;43.690;27.956;2023-05-01T00:52:46;98807.03;;;11.95;66.18
18697;BME280;22617;43.690;27.956;2023-05-01T00:57:50;98801.03;;;11.88;66.63
18697;BME280;22617;43.690;27.956;2023-05-01T01:02:56;98810.50;;;11.95;66.06
18697;BME280;22617;43.690;27.956;2023-05-01T01:08:05;98814.06;;;11.91;66.37
18697;BME280;22617;43.690;27.956;2023-05-01T01:13:19;98817.91;;;11.57;66.43
18697;BME280;22617;43.690;27.956;2023-05-01T01:18:32;98819.72;;;11.49;64.04
18697;BME280;22617;43.690;27.956;2023-05-01T01:24:05;98828.44;;;11.48;63.59
18697;BME280;22617;43.690;27.956;2023-05-01T01:35:06;98819.72;;;11.49;66.03
18697;BME280;22617;43.690;27.956;2023-05-01T01:40:13;98814.47;;;11.52;65.73
18697;BME280;22617;43.690;27.956;2023-05-01T01:45:21;98808.63;;;11.28;65.65
18697;BME280;22617;43.690;27.956;2023-05-01T01:50:28;98812.47;;;10.89;66.65
18697;BME280;22617;43.690;27.956;2023-05-01T01:55:34;98815.84;;;11.01;66.79
18697;BME280;22617;43.690;27.956;2023-05-01T02:00:40;98809.78;;;11.02;65.78
18697;BME280;22617;43.690;27.956;2023-05-01T02:05:49;98833.41;;;10.83;66.16
18697;BME280;22617;43.690;27.956;2023-05-01T02:10:55;98831.72;;;10.73;66.81
18697;BME280;22617;43.690;27.956;2023-05-01T02:16:05;98835.41;;;10.43;67.16
18697;BME280;22617;43.690;27.956;2023-05-01T02:21:12;98847.59;;;10.38;67.76
18697;BME280;22617;43.690;27.956;2023-05-01T02:26:18;98849.41;;;10.12;67.98
18697;BME280;22617;43.690;27.956;2023-05-01T02:31:25;98852.16;;;9.82;68.71
18697;BME280;22617;43.690;27.956;2023-05-01T02:36:31;98842.53;;;10.05;68.23
18697;BME280;22617;43.690;27.956;2023-05-01T02:41:36;98849.56;;;9.88;68.74
18697;BME280;22617;43.690;27.956;2023-05-01T02:46:44;98849.63;;;9.60;67.91
18697;BME280;22617;43.690;27.956;2023-05-01T02:51:51;98865.25;;;9.47;68.80
18697;BME280;22617;43.690;27.956;2023-05-01T02:56:56;98865.28;;;9.42;68.61
18697;BME280;22617;43.690;27.956;2023-05-01T03:02:03;98867.06;;;9.10;70.32
18697;BME280;22617;43.690;27.956;2023-05-01T03:07:08;98872.25;;;9.21;69.72
18697;BME280;22617;43.690;27.956;2023-05-01T03:12:12;98869.63;;;9.07;69.48
18697;BME280;22617;43.690;27.956;2023-05-01T03:17:16;98880.06;;;9.01;70.10
18697;BME280;22617;43.690;27.956;2023-05-01T03:22:22;98887.81;;;9.07;70.50
18697;BME280;22617;43.690;27.956;2023-05-01T03:27:26;98885.22;;;9.13;69.69
18697;BME280;22617;43.690;27.956;2023-05-01T03:32:30;98891.31;;;9.00;70.69
18697;BME280;22617;43.690;27.956;2023-05-01T03:37:36;98891.28;;;9.03;69.71
18697;BME280;22617;43.690;27.956;2023-05-01T03:42:40;98900.84;;;8.96;69.01
18697;BME280;22617;43.690;27.956;2023-05-01T03:47:52;98906.03;;;9.14;70.42
18697;BME280;22617;43.690;27.956;2023-05-01T03:52:59;98908.63;;;9.40;69.87
18697;BME280;22617;43.690;27.956;2023-05-01T03:58:03;98913.78;;;9.64;70.34
18697;BME280;22617;43.690;27.956;2023-05-01T04:03:07;98907.63;;;9.93;69.51
18697;BME280;22617;43.690;27.956;2023-05-01T04:08:15;98910.19;;;10.17;69.72
18697;BME280;22617;43.690;27.956;2023-05-01T04:13:19;98907.47;;;10.41;69.97
18697;BME280;22617;43.690;27.956;2023-05-01T04:18:23;98908.25;;;10.60;69.82
18697;BME280;22617;43.690;27.956;2023-05-01T04:23:30;98915.03;;;10.90;68.83
18697;BME280;22617;43.690;27.956;2023-05-01T04:28:34;98924.38;;;11.18;68.96
18697;BME280;22617;43.690;27.956;2023-05-01T04:33:41;98928.56;;;11.37;69.01
18697;BME280;22617;43.690;27.956;2023-05-01T04:38:47;98929.34;;;11.49;68.42
18697;BME280;22617;43.690;27.956;2023-05-01T04:43:52;98932.59;;;11.72;68.71
18697;BME280;22617;43.690;27.956;2023-05-01T04:48:56;98937.63;;;11.96;68.04
18697;BME280;22617;43.690;27.956;2023-05-01T04:54:02;98945.13;;;12.25;68.00
18697;BME280;22617;43.690;27.956;2023-05-01T04:59:09;98954.47;;;12.44;68.07
18697;BME280;22617;43.690;27.956;2023-05-01T05:04:14;98951.56;;;12.68;67.93
18697;BME280;22617;43.690;27.956;2023-05-01T05:09:19;98961.59;;;12.99;66.82
18697;BME280;22617;43.690;27.956;2023-05-01T05:14:24;98966.66;;;13.13;66.05
18697;BME280;22617;43.690;27.956;2023-05-01T05:19:28;98980.41;;;13.25;66.71
18697;BME280;22617;43.690;27.956;2023-05-01T05:24:34;98998.22;;;13.59;66.48
18697;BME280;22617;43.690;27.956;2023-05-01T05:29:37;99009.34;;;13.73;66.36
18697;BME280;22617;43.690;27.956;2023-05-01T05:34:41;99019.44;;;13.95;64.05
18697;BME280;22617;43.690;27.956;2023-05-01T05:39:47;99029.63;;;14.11;63.33
18697;BME280;22617;43.690;27.956;2023-05-01T05:44:51;99032.09;;;14.20;64.30
18697;BME280;22617;43.690;27.956;2023-05-01T05:49:56;99031.34;;;14.62;63.79
18697;BME280;22617;43.690;27.956;2023-05-01T05:55:03;99038.09;;;14.72;63.10
18697;BME280;22617;43.690;27.956;2023-05-01T06:00:09;99043.00;;;14.91;62.63
18697;BME280;22617;43.690;27.956;2023-05-01T06:05:16;99034.72;;;15.10;62.69
18697;BME280;22617;43.690;27.956;2023-05-01T06:10:22;99038.03;;;15.18;62.36
18697;BME280;22617;43.690;27.956;2023-05-01T06:15:26;99039.22;;;15.42;62.94
18697;BME280;22617;43.690;27.956;2023-05-01T06:20:31;99044.84;;;15.65;61.28
18697;BME280;22617;43.690;27.956;2023-05-01T06:25:37;99051.13;;;15.95;60.68
18697;BME280;22617;43.690;27.956;2023-05-01T06:30:41;99060.97;;;16.21;60.08
18697;BME280;22617;43.690;27.956;2023-05-01T06:35:51;99067.97;;;16.22;57.75
18697;BME280;22617;43.690;27.956;2023-05-01T06:40:57;99070.94;;;16.76;59.75
18697;BME280;22617;43.690;27.956;2023-05-01T06:46:01;99075.84;;;16.88;55.99
18697;BME280;22617;43.690;27.956;2023-05-01T06:51:05;99077.25;;;17.02;56.46
18697;BME280;22617;43.690;27.956;2023-05-01T06:56:11;99084.00;;;17.10;55.74
18697;BME280;22617;43.690;27.956;2023-05-01T07:01:17;99087.72;;;17.03;56.45
18697;BME280;22617;43.690;27.956;2023-05-01T07:06:21;99103.59;;;17.60;56.00
18697;BME280;22617;43.690;27.956;2023-05-01T07:11:27;99096.00;;;17.50;55.79
18697;BME280;22617;43.690;27.956;2023-05-01T07:16:31;99102.03;;;17.82;55.44
18697;BME280;22617;43.690;27.956;2023-05-01T07:21:36;99101.53;;;18.24;55.09
18697;BME280;22617;43.690;27.956;2023-05-01T07:26:44;99115.22;;;18.37;54.70
18697;BME280;22617;43.690;27.956;2023-05-01T07:31:49;99121.13;;;18.94;54.05
18697;BME280;22617;43.690;27.956;2023-05-01T07:36:54;99121.66;;;19.04;53.19
18697;BME280;22617;43.690;27.956;2023-05-01T07:42:03;99122.56;;;19.28;52.62
18697;BME280;22617;43.690;27.956;2023-05-01T07:47:22;99120.81;;;19.51;51.79
18697;BME280;22617;43.690;27.956;2023-05-01T07:52:35;99131.75;;;19.41;51.16
18697;BME280;22617;43.690;27.956;2023-05-01T07:57:47;99138.19;;;19.57;52.05
18697;BME280;22617;43.690;27.956;2023-05-01T08:02:53;99131.47;;;19.93;50.42
18697;BME280;22617;43.690;27.956;2023-05-01T08:08:03;99141.31;;;20.55;49.92
18697;BME280;22617;43.690;27.956;2023-05-01T08:13:22;99139.50;;;21.37;48.02
18697;BME280;22617;43.690;27.956;2023-05-01T08:18:30;99134.16;;;20.98;47.89
18697;BME280;22617;43.690;27.956;2023-05-01T08:23:37;99145.91;;;21.51;46.61
18697;BME280;22617;43.690;27.956;2023-05-01T08:28:57;99156.69;;;21.08;46.97
18697;BME280;22617;43.690;27.956;2023-05-01T08:34:31;99144.75;;;21.38;46.86
18697;BME280;22617;43.690;27.956;2023-05-01T08:39:43;99141.75;;;21.83;46.29
18697;BME280;22617;43.690;27.956;2023-05-01T08:44:57;99148.50;;;22.09;46.30
18697;BME280;22617;43.690;27.956;2023-05-01T08:50:08;99150.78;;;22.16;45.44
18697;BME280;22617;43.690;27.956;2023-05-01T08:55:14;99150.28;;;23.13;43.03
18697;BME280;22617;43.690;27.956;2023-05-01T09:00:24;99151.28;;;23.45;43.19
18697;BME280;22617;43.690;27.956;2023-05-01T09:05:31;99158.50;;;22.21;43.52
18697;BME280;22617;43.690;27.956;2023-05-01T09:10:41;99165.09;;;22.31;44.51
18697;BME280;22617;43.690;27.956;2023-05-01T09:15:53;99155.44;;;23.33;43.16
18697;BME280;22617;43.690;27.956;2023-05-01T09:21:02;99161.56;;;22.67;42.06
18697;BME280;22617;43.690;27.956;2023-05-01T09:26:07;99159.63;;;21.98;43.71
18697;BME280;22617;43.690;27.956;2023-05-01T09:31:25;99152.28;;;21.66;42.96
18697;BME280;22617;43.690;27.956;2023-05-01T09:36:32;99164.53;;;23.12;42.74
18697;BME280;22617;43.690;27.956;2023-05-01T09:41:56;99155.63;;;24.42;40.73
18697;BME280;22617;43.690;27.956;2023-05-01T09:47:04;99162.22;;;22.72;42.26
18697;BME280;22617;43.690;27.956;2023-05-01T09:52:15;99166.03;;;20.76;42.99
18697;BME280;22617;43.690;27.956;2023-05-01T09:57:35;99162.63;;;22.45;43.05
18697;BME280;22617;43.690;27.956;2023-05-01T10:02:47;99173.41;;;22.42;41.06
18697;BME280;22617;43.690;27.956;2023-05-01T10:07:55;99169.81;;;20.91;42.28
18697;BME280;22617;43.690;27.956;2023-05-01T10:13:12;99169.75;;;21.33;42.68
18697;BME280;22617;43.690;27.956;2023-05-01T10:18:20;99171.47;;;21.72;42.23
18697;BME280;22617;43.690;27.956;2023-05-01T10:23:26;99175.69;;;20.97;41.55
18697;BME280;22617;43.690;27.956;2023-05-01T10:28:32;99180.78;;;20.81;43.03
18697;BME280;22617;43.690;27.956;2023-05-01T10:33:39;99183.19;;;22.59;43.04
18697;BME280;22617;43.690;27.956;2023-05-01T10:38:53;99185.25;;;23.73;38.43
18697;BME280;22617;43.690;27.956;2023-05-01T10:44:19;99165.94;;;24.48;39.75
18697;BME280;22617;43.690;27.956;2023-05-01T10:55:39;99177.03;;;21.85;40.30
18697;BME280;22617;43.690;27.956;2023-05-01T11:01:26;99187.16;;;22.50;40.38
18697;BME280;22617;43.690;27.956;2023-05-01T11:07:32;99184.69;;;22.65;40.13
18697;BME280;22617;43.690;27.956;2023-05-01T11:33:32;99177.47;;;21.76;39.86
18697;BME280;22617;43.690;27.956;2023-05-01T11:45:17;99167.00;;;25.05;37.75
18697;BME280;22617;43.690;27.956;2023-05-01T11:50:31;99174.16;;;24.59;37.70
18697;BME280;22617;43.690;27.956;2023-05-01T11:55:38;99180.81;;;22.00;39.19
18697;BME280;22617;43.690;27.956;2023-05-01T12:00:43;99170.22;;;24.03;39.15
18697;BME280;22617;43.690;27.956;2023-05-01T12:05:56;99160.84;;;24.59;35.41
18697;BME280;22617;43.690;27.956;2023-05-01T12:11:05;99143.28;;;25.14;35.98
18697;BME280;22617;43.690;27.956;2023-05-01T12:16:17;99154.78;;;25.01;37.42
18697;BME280;22617;43.690;27.956;2023-05-01T12:21:25;99166.47;;;24.84;36.25
18697;BME280;22617;43.690;27.956;2023-05-01T12:26:31;99157.34;;;24.43;36.23
18697;BME280;22617;43.690;27.956;2023-05-01T12:31:45;99160.56;;;23.36;39.69
18697;BME280;22617;43.690;27.956;2023-05-01T12:36:59;99159.66;;;24.49;38.53
18697;BME280;22617;43.690;27.956;2023-05-01T12:42:13;99149.63;;;24.38;35.83
18697;BME280;22617;43.690;27.956;2023-05-01T12:47:21;99151.91;;;24.90;36.18
18697;BME280;22617;43.690;27.956;2023-05-01T12:52:31;99150.63;;;25.25;36.83
18697;BME280;22617;43.690;27.956;2023-05-01T12:57:53;99162.63;;;23.31;37.64
18697;BME280;22617;43.690;27.956;2023-05-01T13:03:02;99159.97;;;23.31;39.06
18697;BME280;22617;43.690;27.956;2023-05-01T13:08:11;99156.03;;;22.35;39.76
18697;BME280;22617;43.690;27.956;2023-05-01T13:13:26;99165.78;;;22.88;39.34
18697;BME280;22617;43.690;27.956;2023-05-01T13:18:33;99157.78;;;23.88;36.88
18697;BME280;22617;43.690;27.956;2023-05-01T13:23:41;99153.16;;;24.68;36.87
18697;BME280;22617;43.690;27.956;2023-05-01T13:28:47;99150.47;;;24.39;37.38
18697;BME280;22617;43.690;27.956;2023-05-01T13:33:57;99157.81;;;23.05;38.54
18697;BME280;22617;43.690;27.956;2023-05-01T13:39:21;99159.88;;;23.00;39.25
18697;BME280;22617;43.690;27.956;2023-05-01T13:44:29;99154.97;;;22.56;40.53
18697;BME280;22617;43.690;27.956;2023-05-01T13:49:40;99154.31;;;21.98;40.42
18697;BME280;22617;43.690;27.956;2023-05-01T13:54:48;99156.03;;;21.81;40.91
18697;BME280;22617;43.690;27.956;2023-05-01T13:59:54;99156.78;;;22.39;40.19
18697;BME280;22617;43.690;27.956;2023-05-01T14:04:58;99165.28;;;22.81;40.66
18697;BME280;22617;43.690;27.956;2023-05-01T14:10:08;99171.59;;;22.79;40.14
18697;BME280;22617;43.690;27.956;2023-05-01T14:15:16;99165.84;;;22.16;40.64
18697;BME280;22617;43.690;27.956;2023-05-01T14:20:25;99170.13;;;22.54;40.70
18697;BME280;22617;43.690;27.956;2023-05-01T14:25:33;99174.84;;;23.18;38.40
18697;BME280;22617;43.690;27.956;2023-05-01T14:30:41;99174.72;;;23.04;39.10
18697;BME280;22617;43.690;27.956;2023-05-01T14:35:54;99171.44;;;23.16;40.02
18697;BME280;22617;43.690;27.956;2023-05-01T14:41:03;99167.88;;;23.33;39.87
18697;BME280;22617;43.690;27.956;2023-05-01T14:46:11;99171.91;;;22.90;39.03
18697;BME280;22617;43.690;27.956;2023-05-01T14:51:18;99179.34;;;22.47;40.03
18697;BME280;22617;43.690;27.956;2023-05-01T14:56:24;99178.19;;;22.17;40.14
18697;BME280;22617;43.690;27.956;2023-05-01T15:01:29;99186.06;;;22.37;41.34
18697;BME280;22617;43.690;27.956;2023-05-01T15:06:33;99182.50;;;22.20;40.75
18697;BME280;22617;43.690;27.956;2023-05-01T15:11:39;99181.09;;;21.94;42.28
18697;BME280;22617;43.690;27.956;2023-05-01T15:16:44;99180.47;;;21.87;41.96
18697;BME280;22617;43.690;27.956;2023-05-01T15:21:48;99205.06;;;21.53;41.55
18697;BME280;22617;43.690;27.956;2023-05-01T15:26:55;99200.66;;;21.34;41.52
18697;BME280;22617;43.690;27.956;2023-05-01T15:32:01;99207.19;;;20.63;42.95
18697;BME280;22617;43.690;27.956;2023-05-01T15:37:17;99204.03;;;20.33;44.24
18697;BME280;22617;43.690;27.956;2023-05-01T15:42:23;99209.47;;;19.83;43.83
18697;BME280;22617;43.690;27.956;2023-05-01T15:47:27;99207.66;;;19.37;44.21
18697;BME280;22617;43.690;27.956;2023-05-01T15:52:31;99215.47;;;19.15;44.28
18697;BME280;22617;43.690;27.956;2023-05-01T15:57:38;99212.56;;;18.98;44.66
18697;BME280;22617;43.690;27.956;2023-05-01T16:02:42;99225.03;;;18.68;45.77
18697;BME280;22617;43.690;27.956;2023-05-01T16:07:52;99226.13;;;18.61;46.23
18697;BME280;22617;43.690;27.956;2023-05-01T16:12:58;99220.84;;;18.61;45.04
18697;BME280;22617;43.690;27.956;2023-05-01T16:18:03;99238.09;;;18.45;44.83
18697;BME280;22617;43.690;27.956;2023-05-01T16:23:07;99239.81;;;18.18;43.98
18697;BME280;22617;43.690;27.956;2023-05-01T16:28:15;99241.94;;;18.07;44.78
18697;BME280;22617;43.690;27.956;2023-05-01T16:33:23;99246.91;;;17.89;44.44
18697;BME280;22617;43.690;27.956;2023-05-01T16:38:34;99261.25;;;17.78;45.22
18697;BME280;22617;43.690;27.956;2023-05-01T16:50:38;99269.66;;;17.28;47.30
18697;BME280;22617;43.690;27.956;2023-05-01T16:55:43;99276.56;;;16.98;48.22
18697;BME280;22617;43.690;27.956;2023-05-01T17:00:47;99274.97;;;16.55;49.78
18697;BME280;22617;43.690;27.956;2023-05-01T17:05:52;99283.94;;;16.47;50.03
18697;BME280;22617;43.690;27.956;2023-05-01T17:10:56;99296.75;;;16.24;49.87
18697;BME280;22617;43.690;27.956;2023-05-01T17:16:00;99300.00;;;15.96;50.05
18697;BME280;22617;43.690;27.956;2023-05-01T17:21:05;99304.31;;;15.99;49.81
18697;BME280;22617;43.690;27.956;2023-05-01T17:26:09;99313.50;;;15.78;49.99
18697;BME280;22617;43.690;27.956;2023-05-01T17:31:14;99306.06;;;15.55;50.07
18697;BME280;22617;43.690;27.956;2023-05-01T17:36:22;99323.91;;;15.35;50.72
18697;BME280;22617;43.690;27.956;2023-05-01T17:41:26;99331.56;;;15.00;51.59
18697;BME280;22617;43.690;27.956;2023-05-01T17:46:30;99328.16;;;14.93;51.35
18697;BME280;22617;43.690;27.956;2023-05-01T17:51:34;99336.44;;;14.67;51.65
18697;BME280;22617;43.690;27.956;2023-05-01T17:56:38;99341.84;;;14.57;51.61
18697;BME280;22617;43.690;27.956;2023-05-01T18:01:42;99347.31;;;14.40;51.89
18697;BME280;22617;43.690;27.956;2023-05-01T18:06:47;99353.66;;;14.21;52.27
18697;BME280;22617;43.690;27.956;2023-05-01T18:11:51;99357.28;;;14.11;52.72
18697;BME280;22617;43.690;27.956;2023-05-01T18:16:55;99365.03;;;14.21;53.07
18697;BME280;22617;43.690;27.956;2023-05-01T18:22:00;99365.19;;;14.08;53.37
18697;BME280;22617;43.690;27.956;2023-05-01T18:27:05;99376.63;;;14.01;53.54
18697;BME280;22617;43.690;27.956;2023-05-01T18:32:09;99373.25;;;13.91;54.21
18697;BME280;22617;43.690;27.956;2023-05-01T18:37:16;99374.94;;;13.98;54.03
18697;BME280;22617;43.690;27.956;2023-05-01T18:42:22;99388.91;;;13.98;54.29
18697;BME280;22617;43.690;27.956;2023-05-01T18:47:29;99397.69;;;13.94;53.78
18697;BME280;22617;43.690;27.956;2023-05-01T18:52:35;99403.09;;;13.78;54.44
18697;BME280;22617;43.690;27.956;2023-05-01T18:57:38;99408.53;;;13.61;55.38
18697;BME280;22617;43.690;27.956;2023-05-01T19:02:45;99412.00;;;13.60;55.21
18697;BME280;22617;43.690;27.956;2023-05-01T19:07:54;99407.75;;;13.50;55.32
18697;BME280;22617;43.690;27.956;2023-05-01T19:13:04;99414.72;;;13.49;55.35
18697;BME280;22617;43.690;27.956;2023-05-01T19:18:08;99412.94;;;13.53;55.55
18697;BME280;22617;43.690;27.956;2023-05-01T19:23:13;99422.63;;;13.45;56.79
18697;BME280;22617;43.690;27.956;2023-05-01T19:28:17;99428.97;;;13.18;56.96
18697;BME280;22617;43.690;27.956;2023-05-01T19:33:20;99424.53;;;13.25;57.38
18697;BME280;22617;43.690;27.956;2023-05-01T19:38:25;99426.31;;;13.20;56.59
18697;BME280;22617;43.690;27.956;2023-05-01T19:43:30;99427.31;;;13.00;56.15
18697;BME280;22617;43.690;27.956;2023-05-01T19:48:34;99429.03;;;13.01;56.37
18697;BME280;22617;43.690;27.956;2023-05-01T19:53:39;99430.81;;;12.98;57.17
18697;BME280;22617;43.690;27.956;2023-05-01T19:58:43;99427.44;;;12.82;57.58
18697;BME280;22617;43.690;27.956;2023-05-01T20:03:46;99439.72;;;12.68;57.66
18697;BME280;22617;43.690;27.956;2023-05-01T20:08:51;99438.88;;;12.66;57.77
18697;BME280;22617;43.690;27.956;2023-05-01T20:13:54;99447.66;;;12.48;58.08
18697;BME280;22617;43.690;27.956;2023-05-01T20:18:58;99446.81;;;12.45;58.44
18697;BME280;22617;43.690;27.956;2023-05-01T20:24:03;99451.19;;;12.34;58.80
18697;BME280;22617;43.690;27.956;2023-05-01T20:29:07;99448.66;;;12.21;59.28
18697;BME280;22617;43.690;27.956;2023-05-01T20:34:11;99463.41;;;12.35;59.83
18697;BME280;22617;43.690;27.956;2023-05-01T20:39:16;99455.56;;;12.36;59.25
18697;BME280;22617;43.690;27.956;2023-05-01T20:44:19;99458.22;;;12.26;59.75
18697;BME280;22617;43.690;27.956;2023-05-01T20:49:23;99460.78;;;12.35;59.82
18697;BME280;22617;43.690;27.956;2023-05-01T20:54:28;99464.34;;;12.21;60.16
18697;BME280;22617;43.690;27.956;2023-05-01T20:59:33;99457.41;;;11.96;60.21
18697;BME280;22617;43.690;27.956;2023-05-01T21:04:37;99461.78;;;11.96;60.39
18697;BME280;22617;43.690;27.956;2023-05-01T21:09:44;99463.53;;;11.97;60.19
18697;BME280;22617;43.690;27.956;2023-05-01T21:14:48;99461.75;;;12.09;60.06
18697;BME280;22617;43.690;27.956;2023-05-01T21:19:51;99468.75;;;11.85;59.76
18697;BME280;22617;43.690;27.956;2023-05-01T21:24:58;99476.63;;;11.72;59.97
18697;BME280;22617;43.690;27.956;2023-05-01T21:30:05;99472.25;;;11.46;59.49
18697;BME280;22617;43.690;27.956;2023-05-01T21:35:09;99476.59;;;11.53;60.43
18697;BME280;22617;43.690;27.956;2023-05-01T21:40:18;99474.88;;;11.77;60.36
18697;BME280;22617;43.690;27.956;2023-05-01T21:45:21;99482.69;;;11.68;60.27
18697;BME280;22617;43.690;27.956;2023-05-01T21:50:28;99482.69;;;11.49;60.77
18697;BME280;22617;43.690;27.956;2023-05-01T21:55:35;99475.72;;;11.66;60.73
18697;BME280;22617;43.690;27.956;2023-05-01T22:00:40;99468.78;;;11.65;58.72
18697;BME280;22617;43.690;27.956;2023-05-01T22:05:44;99473.13;;;11.64;58.20
18697;BME280;22617;43.690;27.956;2023-05-01T22:10:48;99472.25;;;11.40;58.95
18697;BME280;22617;43.690;27.956;2023-05-01T22:15:52;99474.84;;;11.24;60.43
18697;BME280;22617;43.690;27.956;2023-05-01T22:20:56;99473.97;;;11.25;60.97
18697;BME280;22617;43.690;27.956;2023-05-01T22:26:02;99472.22;;;11.18;61.08
18697;BME280;22617;43.690;27.956;2023-05-01T22:31:06;99473.06;;;10.88;61.08
18697;BME280;22617;43.690;27.956;2023-05-01T22:36:09;99479.13;;;10.78;61.47
18697;BME280;22617;43.690;27.956;2023-05-01T22:41:14;99472.22;;;11.02;61.41
18697;BME280;22617;43.690;27.956;2023-05-01T22:46:18;99469.59;;;10.97;61.05
18697;BME280;22617;43.690;27.956;2023-05-01T22:51:22;99462.63;;;10.94;61.67
18697;BME280;22617;43.690;27.956;2023-05-01T22:56:27;99456.53;;;11.03;61.80
18697;BME280;22617;43.690;27.956;2023-05-01T23:01:31;99450.38;;;10.66;61.66
18697;BME280;22617;43.690;27.956;2023-05-01T23:06:34;99458.13;;;10.37;61.50
18697;BME280;22617;43.690;27.956;2023-05-01T23:11:40;99453.88;;;10.59;61.65
18697;BME280;22617;43.690;27.956;2023-05-01T23:16:43;99464.22;;;10.47;61.26
18697;BME280;22617;43.690;27.956;2023-05-01T23:21:47;99458.84;;;10.11;61.99
18697;BME280;22617;43.690;27.956;2023-05-01T23:26:53;99453.63;;;10.12;62.67
18697;BME280;22617;43.690;27.956;2023-05-01T23:31:56;99454.53;;;10.17;62.66
18697;BME280;22617;43.690;27.956;2023-05-01T23:37:00;99451.13;;;10.27;62.40
18697;BME280;22617;43.690;27.956;2023-05-01T23:42:05;99451.88;;;10.10;62.11
18697;BME280;22617;43.690;27.956;2023-05-01T23:47:09;99453.66;;;10.15;62.13
18697;BME280;22617;43.690;27.956;2023-05-01T23:52:13;99453.59;;;10.07;62.71
18697;BME280;22617;43.690;27.956;2023-05-01T23:57:18;99452.75;;;10.13;62.15
